sensor_id;sensor_type;location;lat;lon;timestamp;P1;durP1;ratioP1;P2;durP2;ratioP2
44987;SDS011;35735;52.226;21.254;2023-02-28T00:02:38;51.95;;;28.30;;
44987;SDS011;35735;52.226;21.254;2023-02-28T00:07:43;56.83;;;29.42;;
44987;SDS011;35735;52.226;21.254;2023-02-28T00:12:43;57.70;;;28.65;;
44987;SDS011;35735;52.226;21.254;2023-02-28T00:17:44;50.28;;;27.10;;
44987;SDS011;35735;52.226;21.254;2023-02-28T00:22:46;55.60;;;26.62;;
44987;SDS011;35735;52.226;21.254;2023-02-28T00:27:50;48.30;;;26.75;;
44987;SDS011;35735;52.226;21.254;2023-02-28T00:32:51;59.90;;;27.90;;
44987;SDS011;35735;52.226;21.254;2023-02-28T00:37:51;63.10;;;29.87;;
44987;SDS011;35735;52.226;21.254;2023-02-28T00:42:52;55.05;;;28.25;;
44987;SDS011;35735;52.226;21.254;2023-02-28T00:47:52;54.05;;;27.85;;
44987;SDS011;35735;52.226;21.254;2023-02-28T00:52:53;57.45;;;27.08;;
44987;SDS011;35735;52.226;21.254;2023-02-28T00:57:53;54.67;;;29.65;;
44987;SDS011;35735;52.226;21.254;2023-02-28T01:02:54;58.10;;;30.67;;
44987;SDS011;35735;52.226;21.254;2023-02-28T01:07:55;63.92;;;32.28;;
44987;SDS011;35735;52.226;21.254;2023-02-28T01:12:55;59.05;;;30.35;;
44987;SDS011;35735;52.226;21.254;2023-02-28T01:17:56;54.90;;;27.77;;
44987;SDS011;35735;52.226;21.254;2023-02-28T01:22:57;55.08;;;29.67;;
44987;SDS011;35735;52.226;21.254;2023-02-28T01:27:57;62.47;;;28.40;;
44987;SDS011;35735;52.226;21.254;2023-02-28T01:32:58;60.85;;;29.42;;
44987;SDS011;35735;52.226;21.254;2023-02-28T01:37:59;55.67;;;28.40;;
44987;SDS011;35735;52.226;21.254;2023-02-28T01:43:00;65.85;;;31.98;;
44987;SDS011;35735;52.226;21.254;2023-02-28T01:48:02;77.87;;;36.90;;
44987;SDS011;35735;52.226;21.254;2023-02-28T01:53:07;93.32;;;43.45;;
44987;SDS011;35735;52.226;21.254;2023-02-28T01:58:12;97.85;;;44.17;;
44987;SDS011;35735;52.226;21.254;2023-02-28T02:03:13;115.45;;;51.65;;
44987;SDS011;35735;52.226;21.254;2023-02-28T02:08:17;114.07;;;52.33;;
44987;SDS011;35735;52.226;21.254;2023-02-28T02:18:59;116.50;;;48.85;;
44987;SDS011;35735;52.226;21.254;2023-02-28T02:35:14;99.00;;;43.53;;
44987;SDS011;35735;52.226;21.254;2023-02-28T02:40:32;90.72;;;43.47;;
44987;SDS011;35735;52.226;21.254;2023-02-28T02:45:48;89.57;;;41.80;;
44987;SDS011;35735;52.226;21.254;2023-02-28T02:50:55;80.68;;;39.60;;
44987;SDS011;35735;52.226;21.254;2023-02-28T02:55:59;91.25;;;43.33;;
44987;SDS011;35735;52.226;21.254;2023-02-28T03:01:04;92.95;;;44.17;;
44987;SDS011;35735;52.226;21.254;2023-02-28T03:06:05;89.28;;;43.95;;
44987;SDS011;35735;52.226;21.254;2023-02-28T03:11:06;94.93;;;44.28;;
44987;SDS011;35735;52.226;21.254;2023-02-28T03:27:32;114.07;;;48.22;;
44987;SDS011;35735;52.226;21.254;2023-02-28T03:38:00;104.82;;;46.70;;
44987;SDS011;35735;52.226;21.254;2023-02-28T03:43:12;101.43;;;47.40;;
44987;SDS011;35735;52.226;21.254;2023-02-28T03:48:21;118.37;;;50.95;;
44987;SDS011;35735;52.226;21.254;2023-02-28T03:53:39;123.62;;;55.30;;
44987;SDS011;35735;52.226;21.254;2023-02-28T04:04:28;127.75;;;56.60;;
44987;SDS011;35735;52.226;21.254;2023-02-28T04:09:29;124.95;;;54.45;;
44987;SDS011;35735;52.226;21.254;2023-02-28T04:14:30;115.45;;;52.55;;
44987;SDS011;35735;52.226;21.254;2023-02-28T04:19:30;117.93;;;52.35;;
44987;SDS011;35735;52.226;21.254;2023-02-28T04:24:31;115.22;;;52.55;;
44987;SDS011;35735;52.226;21.254;2023-02-28T04:29:31;112.15;;;51.70;;
44987;SDS011;35735;52.226;21.254;2023-02-28T04:34:32;110.18;;;51.33;;
44987;SDS011;35735;52.226;21.254;2023-02-28T04:39:34;122.35;;;53.58;;
44987;SDS011;35735;52.226;21.254;2023-02-28T04:44:36;121.70;;;53.97;;
44987;SDS011;35735;52.226;21.254;2023-02-28T04:49:37;121.93;;;55.05;;
44987;SDS011;35735;52.226;21.254;2023-02-28T04:54:37;113.70;;;53.40;;
44987;SDS011;35735;52.226;21.254;2023-02-28T04:59:38;116.60;;;55.08;;
44987;SDS011;35735;52.226;21.254;2023-02-28T05:04:39;123.40;;;56.03;;
44987;SDS011;35735;52.226;21.254;2023-02-28T05:09:39;119.78;;;54.67;;
44987;SDS011;35735;52.226;21.254;2023-02-28T05:14:40;122.35;;;54.75;;
44987;SDS011;35735;52.226;21.254;2023-02-28T05:19:40;135.55;;;58.00;;
44987;SDS011;35735;52.226;21.254;2023-02-28T05:24:41;197.87;;;76.47;;
44987;SDS011;35735;52.226;21.254;2023-02-28T05:29:41;283.87;;;100.68;;
44987;SDS011;35735;52.226;21.254;2023-02-28T05:34:42;265.95;;;96.95;;
44987;SDS011;35735;52.226;21.254;2023-02-28T05:39:42;296.65;;;104.43;;
44987;SDS011;35735;52.226;21.254;2023-02-28T05:44:43;268.85;;;97.37;;
44987;SDS011;35735;52.226;21.254;2023-02-28T05:49:44;232.73;;;85.93;;
44987;SDS011;35735;52.226;21.254;2023-02-28T05:54:45;202.57;;;77.32;;
44987;SDS011;35735;52.226;21.254;2023-02-28T05:59:46;187.00;;;74.60;;
44987;SDS011;35735;52.226;21.254;2023-02-28T06:04:47;164.77;;;68.43;;
44987;SDS011;35735;52.226;21.254;2023-02-28T06:09:47;149.07;;;62.20;;
44987;SDS011;35735;52.226;21.254;2023-02-28T06:14:48;139.02;;;58.63;;
44987;SDS011;35735;52.226;21.254;2023-02-28T06:19:49;118.40;;;53.78;;
44987;SDS011;35735;52.226;21.254;2023-02-28T06:24:49;112.78;;;54.45;;
44987;SDS011;35735;52.226;21.254;2023-02-28T06:29:52;119.20;;;57.17;;
44987;SDS011;35735;52.226;21.254;2023-02-28T06:34:54;138.05;;;60.03;;
44987;SDS011;35735;52.226;21.254;2023-02-28T06:39:55;128.12;;;57.78;;
44987;SDS011;35735;52.226;21.254;2023-02-28T06:44:56;130.93;;;57.33;;
44987;SDS011;35735;52.226;21.254;2023-02-28T06:49:56;116.72;;;54.17;;
44987;SDS011;35735;52.226;21.254;2023-02-28T06:54:57;113.90;;;55.45;;
44987;SDS011;35735;52.226;21.254;2023-02-28T06:59:58;110.53;;;55.78;;
44987;SDS011;35735;52.226;21.254;2023-02-28T07:04:59;102.20;;;52.47;;
44987;SDS011;35735;52.226;21.254;2023-02-28T07:10:00;92.82;;;45.45;;
44987;SDS011;35735;52.226;21.254;2023-02-28T07:15:01;72.35;;;38.38;;
44987;SDS011;35735;52.226;21.254;2023-02-28T07:20:01;77.85;;;39.65;;
44987;SDS011;35735;52.226;21.254;2023-02-28T07:25:02;63.60;;;35.08;;
44987;SDS011;35735;52.226;21.254;2023-02-28T07:30:02;61.28;;;30.85;;
44987;SDS011;35735;52.226;21.254;2023-02-28T07:35:04;47.95;;;24.85;;
44987;SDS011;35735;52.226;21.254;2023-02-28T07:40:05;60.97;;;29.10;;
44987;SDS011;35735;52.226;21.254;2023-02-28T07:45:08;24.00;;;13.30;;
44987;SDS011;35735;52.226;21.254;2023-02-28T07:50:12;21.37;;;11.48;;
44987;SDS011;35735;52.226;21.254;2023-02-28T07:55:14;15.13;;;10.45;;
44987;SDS011;35735;52.226;21.254;2023-02-28T08:00:15;16.05;;;10.27;;
44987;SDS011;35735;52.226;21.254;2023-02-28T08:05:16;20.90;;;11.68;;
44987;SDS011;35735;52.226;21.254;2023-02-28T08:10:19;11.35;;;7.62;;
44987;SDS011;35735;52.226;21.254;2023-02-28T08:15:33;11.15;;;7.65;;
44987;SDS011;35735;52.226;21.254;2023-02-28T08:20:33;11.40;;;7.80;;
44987;SDS011;35735;52.226;21.254;2023-02-28T08:25:34;12.40;;;8.23;;
44987;SDS011;35735;52.226;21.254;2023-02-28T08:30:35;16.87;;;10.35;;
44987;SDS011;35735;52.226;21.254;2023-02-28T08:35:36;29.17;;;11.32;;
44987;SDS011;35735;52.226;21.254;2023-02-28T08:40:37;20.65;;;10.85;;
44987;SDS011;35735;52.226;21.254;2023-02-28T08:45:37;16.60;;;10.10;;
44987;SDS011;35735;52.226;21.254;2023-02-28T08:50:38;17.10;;;10.50;;
44987;SDS011;35735;52.226;21.254;2023-02-28T08:55:38;13.80;;;9.95;;
44987;SDS011;35735;52.226;21.254;2023-02-28T09:00:39;15.55;;;10.27;;
44987;SDS011;35735;52.226;21.254;2023-02-28T09:05:39;18.30;;;10.05;;
44987;SDS011;35735;52.226;21.254;2023-02-28T09:10:40;15.55;;;10.30;;
44987;SDS011;35735;52.226;21.254;2023-02-28T09:15:40;13.77;;;10.13;;
44987;SDS011;35735;52.226;21.254;2023-02-28T09:20:41;16.50;;;10.00;;
44987;SDS011;35735;52.226;21.254;2023-02-28T09:25:46;13.35;;;9.40;;
44987;SDS011;35735;52.226;21.254;2023-02-28T09:30:55;15.95;;;10.23;;
44987;SDS011;35735;52.226;21.254;2023-02-28T09:36:00;15.98;;;10.13;;
44987;SDS011;35735;52.226;21.254;2023-02-28T09:41:03;15.13;;;10.45;;
44987;SDS011;35735;52.226;21.254;2023-02-28T09:46:20;14.23;;;9.73;;
44987;SDS011;35735;52.226;21.254;2023-02-28T09:51:40;13.98;;;8.95;;
44987;SDS011;35735;52.226;21.254;2023-02-28T10:13:32;11.43;;;7.82;;
44987;SDS011;35735;52.226;21.254;2023-02-28T10:18:42;11.20;;;7.93;;
44987;SDS011;35735;52.226;21.254;2023-02-28T10:23:49;11.82;;;7.30;;
44987;SDS011;35735;52.226;21.254;2023-02-28T10:29:00;10.25;;;7.28;;
44987;SDS011;35735;52.226;21.254;2023-02-28T10:34:01;10.05;;;6.90;;
44987;SDS011;35735;52.226;21.254;2023-02-28T10:39:21;8.82;;;6.15;;
44987;SDS011;35735;52.226;21.254;2023-02-28T10:44:42;10.45;;;6.97;;
44987;SDS011;35735;52.226;21.254;2023-02-28T10:49:49;11.45;;;7.07;;
44987;SDS011;35735;52.226;21.254;2023-02-28T10:54:50;10.13;;;7.07;;
44987;SDS011;35735;52.226;21.254;2023-02-28T11:00:24;8.57;;;6.70;;
44987;SDS011;35735;52.226;21.254;2023-02-28T11:10:31;14.45;;;8.27;;
44987;SDS011;35735;52.226;21.254;2023-02-28T11:15:33;12.65;;;7.87;;
44987;SDS011;35735;52.226;21.254;2023-02-28T11:20:34;12.43;;;7.90;;
44987;SDS011;35735;52.226;21.254;2023-02-28T11:25:36;12.52;;;8.48;;
44987;SDS011;35735;52.226;21.254;2023-02-28T11:30:39;12.90;;;8.32;;
44987;SDS011;35735;52.226;21.254;2023-02-28T11:35:40;13.95;;;9.27;;
44987;SDS011;35735;52.226;21.254;2023-02-28T12:19:32;17.00;;;9.52;;
44987;SDS011;35735;52.226;21.254;2023-02-28T12:30:31;17.58;;;10.80;;
44987;SDS011;35735;52.226;21.254;2023-02-28T12:35:36;14.90;;;10.32;;
44987;SDS011;35735;52.226;21.254;2023-02-28T12:41:05;19.25;;;11.90;;
44987;SDS011;35735;52.226;21.254;2023-02-28T12:51:23;19.23;;;11.10;;
44987;SDS011;35735;52.226;21.254;2023-02-28T12:56:32;15.38;;;11.15;;
44987;SDS011;35735;52.226;21.254;2023-02-28T13:13:17;21.02;;;11.63;;
44987;SDS011;35735;52.226;21.254;2023-02-28T13:18:27;14.90;;;10.60;;
44987;SDS011;35735;52.226;21.254;2023-02-28T13:34:15;17.85;;;12.32;;
44987;SDS011;35735;52.226;21.254;2023-02-28T13:44:58;18.42;;;13.00;;
44987;SDS011;35735;52.226;21.254;2023-02-28T14:00:46;19.77;;;11.43;;
44987;SDS011;35735;52.226;21.254;2023-02-28T14:11:32;20.48;;;11.77;;
44987;SDS011;35735;52.226;21.254;2023-02-28T14:16:40;18.23;;;11.48;;
44987;SDS011;35735;52.226;21.254;2023-02-28T14:21:49;19.77;;;12.00;;
44987;SDS011;35735;52.226;21.254;2023-02-28T14:38:22;15.52;;;11.45;;
44987;SDS011;35735;52.226;21.254;2023-02-28T14:43:28;22.10;;;11.20;;
44987;SDS011;35735;52.226;21.254;2023-02-28T14:48:28;17.02;;;12.45;;
44987;SDS011;35735;52.226;21.254;2023-02-28T14:53:30;27.40;;;12.32;;
44987;SDS011;35735;52.226;21.254;2023-02-28T14:58:36;20.00;;;11.38;;
44987;SDS011;35735;52.226;21.254;2023-02-28T15:03:38;19.17;;;11.50;;
44987;SDS011;35735;52.226;21.254;2023-02-28T15:08:39;24.52;;;11.73;;
44987;SDS011;35735;52.226;21.254;2023-02-28T15:13:44;21.83;;;11.82;;
44987;SDS011;35735;52.226;21.254;2023-02-28T15:18:53;20.98;;;10.70;;
44987;SDS011;35735;52.226;21.254;2023-02-28T15:29:19;18.15;;;10.63;;
44987;SDS011;35735;52.226;21.254;2023-02-28T15:39:41;20.48;;;11.30;;
44987;SDS011;35735;52.226;21.254;2023-02-28T15:44:43;21.62;;;12.55;;
44987;SDS011;35735;52.226;21.254;2023-02-28T15:49:45;25.30;;;14.35;;
44987;SDS011;35735;52.226;21.254;2023-02-28T15:54:48;22.50;;;14.20;;
44987;SDS011;35735;52.226;21.254;2023-02-28T15:59:53;20.08;;;13.98;;
44987;SDS011;35735;52.226;21.254;2023-02-28T16:10:09;18.02;;;10.85;;
44987;SDS011;35735;52.226;21.254;2023-02-28T16:15:19;22.70;;;12.35;;
44987;SDS011;35735;52.226;21.254;2023-02-28T16:20:23;23.77;;;12.37;;
44987;SDS011;35735;52.226;21.254;2023-02-28T16:25:29;28.02;;;12.50;;
44987;SDS011;35735;52.226;21.254;2023-02-28T16:30:36;31.17;;;12.80;;
44987;SDS011;35735;52.226;21.254;2023-02-28T16:35:37;35.90;;;15.50;;
44987;SDS011;35735;52.226;21.254;2023-02-28T16:40:39;35.88;;;15.27;;
44987;SDS011;35735;52.226;21.254;2023-02-28T16:45:40;37.00;;;16.58;;
44987;SDS011;35735;52.226;21.254;2023-02-28T16:50:41;37.55;;;19.25;;
44987;SDS011;35735;52.226;21.254;2023-02-28T16:55:42;47.47;;;22.30;;
44987;SDS011;35735;52.226;21.254;2023-02-28T17:00:43;39.80;;;22.45;;
44987;SDS011;35735;52.226;21.254;2023-02-28T17:05:44;38.58;;;22.73;;
44987;SDS011;35735;52.226;21.254;2023-02-28T17:10:44;47.20;;;25.27;;
44987;SDS011;35735;52.226;21.254;2023-02-28T17:15:45;40.67;;;22.25;;
44987;SDS011;35735;52.226;21.254;2023-02-28T17:20:47;54.97;;;28.33;;
44987;SDS011;35735;52.226;21.254;2023-02-28T17:25:48;46.80;;;25.88;;
44987;SDS011;35735;52.226;21.254;2023-02-28T17:30:49;45.55;;;24.90;;
44987;SDS011;35735;52.226;21.254;2023-02-28T17:35:49;46.37;;;25.35;;
44987;SDS011;35735;52.226;21.254;2023-02-28T17:40:50;40.63;;;23.35;;
44987;SDS011;35735;52.226;21.254;2023-02-28T17:45:50;41.25;;;23.00;;
44987;SDS011;35735;52.226;21.254;2023-02-28T17:50:52;35.78;;;21.02;;
44987;SDS011;35735;52.226;21.254;2023-02-28T17:55:52;41.70;;;20.95;;
44987;SDS011;35735;52.226;21.254;2023-02-28T18:00:53;44.80;;;22.00;;
44987;SDS011;35735;52.226;21.254;2023-02-28T18:05:54;46.28;;;23.62;;
44987;SDS011;35735;52.226;21.254;2023-02-28T18:10:54;51.85;;;24.80;;
44987;SDS011;35735;52.226;21.254;2023-02-28T18:15:55;57.05;;;27.60;;
44987;SDS011;35735;52.226;21.254;2023-02-28T18:20:55;66.32;;;30.67;;
44987;SDS011;35735;52.226;21.254;2023-02-28T18:25:56;60.28;;;31.75;;
44987;SDS011;35735;52.226;21.254;2023-02-28T18:30:57;68.15;;;32.33;;
44987;SDS011;35735;52.226;21.254;2023-02-28T18:35:57;57.28;;;32.22;;
44987;SDS011;35735;52.226;21.254;2023-02-28T18:40:59;54.40;;;31.30;;
44987;SDS011;35735;52.226;21.254;2023-02-28T18:46:10;57.38;;;32.33;;
44987;SDS011;35735;52.226;21.254;2023-02-28T18:51:15;60.60;;;33.58;;
44987;SDS011;35735;52.226;21.254;2023-02-28T18:56:23;61.72;;;32.97;;
44987;SDS011;35735;52.226;21.254;2023-02-28T19:01:25;59.20;;;33.20;;
44987;SDS011;35735;52.226;21.254;2023-02-28T19:06:28;62.33;;;33.42;;
44987;SDS011;35735;52.226;21.254;2023-02-28T19:11:29;82.85;;;39.45;;
44987;SDS011;35735;52.226;21.254;2023-02-28T19:16:31;83.53;;;38.58;;
44987;SDS011;35735;52.226;21.254;2023-02-28T19:21:31;81.90;;;40.08;;
44987;SDS011;35735;52.226;21.254;2023-02-28T19:26:32;84.47;;;39.97;;
44987;SDS011;35735;52.226;21.254;2023-02-28T19:31:33;91.37;;;41.08;;
44987;SDS011;35735;52.226;21.254;2023-02-28T19:36:33;95.07;;;42.03;;
44987;SDS011;35735;52.226;21.254;2023-02-28T19:41:34;87.22;;;41.35;;
44987;SDS011;35735;52.226;21.254;2023-02-28T19:46:35;88.85;;;43.47;;
44987;SDS011;35735;52.226;21.254;2023-02-28T19:51:35;123.47;;;63.30;;
44987;SDS011;35735;52.226;21.254;2023-02-28T19:56:36;140.43;;;69.40;;
44987;SDS011;35735;52.226;21.254;2023-02-28T20:01:37;174.68;;;83.53;;
44987;SDS011;35735;52.226;21.254;2023-02-28T20:06:37;127.40;;;61.63;;
44987;SDS011;35735;52.226;21.254;2023-02-28T20:11:38;126.32;;;61.80;;
44987;SDS011;35735;52.226;21.254;2023-02-28T20:16:39;118.87;;;58.80;;
44987;SDS011;35735;52.226;21.254;2023-02-28T20:21:40;112.55;;;56.67;;
44987;SDS011;35735;52.226;21.254;2023-02-28T20:26:41;128.05;;;54.05;;
44987;SDS011;35735;52.226;21.254;2023-02-28T20:31:41;99.82;;;49.80;;
44987;SDS011;35735;52.226;21.254;2023-02-28T20:36:42;95.90;;;41.63;;
44987;SDS011;35735;52.226;21.254;2023-02-28T20:41:43;96.55;;;45.83;;
44987;SDS011;35735;52.226;21.254;2023-02-28T20:46:44;98.53;;;48.10;;
44987;SDS011;35735;52.226;21.254;2023-02-28T20:51:44;104.53;;;49.47;;
44987;SDS011;35735;52.226;21.254;2023-02-28T20:56:45;113.28;;;53.85;;
44987;SDS011;35735;52.226;21.254;2023-02-28T21:01:45;106.65;;;52.50;;
44987;SDS011;35735;52.226;21.254;2023-02-28T21:06:46;97.35;;;49.03;;
44987;SDS011;35735;52.226;21.254;2023-02-28T21:11:47;96.35;;;48.70;;
44987;SDS011;35735;52.226;21.254;2023-02-28T21:16:47;98.72;;;49.72;;
44987;SDS011;35735;52.226;21.254;2023-02-28T21:21:48;114.00;;;56.17;;
44987;SDS011;35735;52.226;21.254;2023-02-28T21:26:49;110.85;;;53.50;;
44987;SDS011;35735;52.226;21.254;2023-02-28T21:31:50;106.30;;;53.22;;
44987;SDS011;35735;52.226;21.254;2023-02-28T21:36:51;115.65;;;53.65;;
44987;SDS011;35735;52.226;21.254;2023-02-28T21:41:52;110.97;;;53.42;;
44987;SDS011;35735;52.226;21.254;2023-02-28T21:46:53;113.82;;;53.38;;
44987;SDS011;35735;52.226;21.254;2023-02-28T21:51:53;106.37;;;50.90;;
44987;SDS011;35735;52.226;21.254;2023-02-28T21:56:54;110.03;;;52.95;;
44987;SDS011;35735;52.226;21.254;2023-02-28T22:01:55;101.15;;;50.53;;
44987;SDS011;35735;52.226;21.254;2023-02-28T22:06:55;99.03;;;51.72;;
44987;SDS011;35735;52.226;21.254;2023-02-28T22:11:56;106.70;;;53.13;;
44987;SDS011;35735;52.226;21.254;2023-02-28T22:16:57;111.65;;;53.65;;
44987;SDS011;35735;52.226;21.254;2023-02-28T22:21:57;106.00;;;53.85;;
44987;SDS011;35735;52.226;21.254;2023-02-28T22:26:58;109.00;;;55.05;;
44987;SDS011;35735;52.226;21.254;2023-02-28T22:31:58;105.90;;;52.78;;
44987;SDS011;35735;52.226;21.254;2023-02-28T22:36:59;98.00;;;51.33;;
44987;SDS011;35735;52.226;21.254;2023-02-28T22:41:59;87.65;;;44.53;;
44987;SDS011;35735;52.226;21.254;2023-02-28T22:47:02;83.82;;;43.15;;
44987;SDS011;35735;52.226;21.254;2023-02-28T22:52:12;85.30;;;44.28;;
44987;SDS011;35735;52.226;21.254;2023-02-28T22:57:13;78.47;;;42.97;;
44987;SDS011;35735;52.226;21.254;2023-02-28T23:02:13;74.45;;;39.20;;
44987;SDS011;35735;52.226;21.254;2023-02-28T23:07:14;74.20;;;40.30;;
44987;SDS011;35735;52.226;21.254;2023-02-28T23:12:15;80.07;;;42.83;;
44987;SDS011;35735;52.226;21.254;2023-02-28T23:17:17;79.65;;;42.35;;
44987;SDS011;35735;52.226;21.254;2023-02-28T23:22:17;81.97;;;42.90;;
44987;SDS011;35735;52.226;21.254;2023-02-28T23:27:27;65.28;;;38.22;;
44987;SDS011;35735;52.226;21.254;2023-02-28T23:32:38;72.95;;;39.28;;
44987;SDS011;35735;52.226;21.254;2023-02-28T23:37:40;74.62;;;40.10;;
44987;SDS011;35735;52.226;21.254;2023-02-28T23:42:40;81.78;;;40.95;;
44987;SDS011;35735;52.226;21.254;2023-02-28T23:47:41;74.37;;;38.97;;
44987;SDS011;35735;52.226;21.254;2023-02-28T23:52:41;71.60;;;39.22;;
44987;SDS011;35735;52.226;21.254;2023-02-28T23:57:42;78.15;;;39.33;;
